Time;durP1;ratioP1;P1;durP2;ratioP2;P2;SDS_P1;SDS_P2;PMS_P1;PMS_P2;Temp;Humidity;BMP_temperature;BMP_pressure;BME280_temperature;BME280_humidity;BME280_pressure;Samples;Min_cycle;Max_cycle;Signal;HPM_P1;HPM_P2
2022/10/10 00:01:30;;;;;;;6.40;2.50;;;;;;;10.21;100.00;101424.69;2613671;31;20515;-53
2022/10/10 00:03:59;;;;;;;4.05;2.70;;;;;;;10.39;100.00;101417.03;2613930;31;20611;-51
2022/10/10 00:06:28;;;;;;;5.93;2.63;;;;;;;10.37;100.00;101405.53;2615203;36;20035;-52
2022/10/10 00:08:56;;;;;;;5.38;2.47;;;;;;;10.41;100.00;101412.38;2612715;36;20042;-50
2022/10/10 00:11:29;;;;;;;3.58;2.28;;;;;;;10.47;100.00;101411.91;2615524;36;20038;-49
2022/10/10 00:13:58;;;;;;;4.13;2.38;;;;;;;10.41;100.00;101406.13;2615204;31;20042;-53
2022/10/10 00:16:26;;;;;;;4.53;2.40;;;;;;;10.33;100.00;101404.94;2613507;36;20042;-57
2022/10/10 00:18:54;;;;;;;5.03;2.47;;;;;;;10.28;100.00;101417.00;2612494;36;20042;-49
2022/10/10 00:21:23;;;;;;;6.43;2.42;;;;;;;10.24;100.00;101415.53;2616763;36;20038;-50
2022/10/10 00:23:51;;;;;;;3.53;2.25;;;;;;;10.26;100.00;101408.16;2614408;36;20061;-56
2022/10/10 00:26:20;;;;;;;5.07;2.35;;;;;;;10.15;100.00;101412.56;2612767;31;20039;-52
2022/10/10 00:28:50;;;;;;;5.27;2.40;;;;;;;10.28;100.00;101409.78;2611176;36;20035;-52
2022/10/10 00:31:19;;;;;;;4.45;2.40;;;;;;;10.25;100.00;101403.78;2611782;31;20034;-54
2022/10/10 00:33:47;;;;;;;4.28;2.40;;;;;;;10.16;100.00;101403.53;2610734;36;20042;-55
2022/10/10 00:36:16;;;;;;;5.80;2.53;;;;;;;10.09;100.00;101412.19;2609939;36;20420;-54
2022/10/10 00:38:44;;;;;;;7.27;2.80;;;;;;;10.11;100.00;101394.94;2614611;36;20418;-51
2022/10/10 00:41:12;;;;;;;5.40;2.53;;;;;;;9.98;100.00;101400.44;2612607;36;20989;-50
2022/10/10 00:43:41;;;;;;;6.03;2.53;;;;;;;9.96;100.00;101398.84;2610166;36;20330;-52
2022/10/10 00:46:12;;;;;;;5.45;2.70;;;;;;;10.02;100.00;101390.28;2609878;36;20031;-50
2022/10/10 00:48:43;;;;;;;7.55;4.07;;;;;;;10.04;100.00;101382.97;2609658;36;20043;-53
2022/10/10 00:51:14;;;;;;;3.67;2.60;;;;;;;10.22;100.00;101383.34;2612144;36;20537;-50
2022/10/10 00:53:46;;;;;;;6.30;3.13;;;;;;;10.25;100.00;101383.13;2610213;36;20046;-55
2022/10/10 00:56:17;;;;;;;4.45;2.92;;;;;;;10.16;100.00;101394.59;2609613;31;20038;-51
2022/10/10 00:58:49;;;;;;;4.82;2.78;;;;;;;10.09;100.00;101377.22;2609445;36;20042;-53
2022/10/10 01:01:26;;;;;;;5.35;2.88;;;;;;;10.06;100.00;101383.69;2611793;36;20042;-54
2022/10/10 01:03:58;;;;;;;7.53;3.10;;;;;;;10.08;100.00;101383.56;2609765;36;20034;-54
2022/10/10 01:06:26;;;;;;;7.25;3.45;;;;;;;10.05;100.00;101381.13;2608842;36;20444;-56
2022/10/10 01:08:56;;;;;;;10.15;3.78;;;;;;;10.04;100.00;101371.34;2610989;36;20427;-53
2022/10/10 01:11:41;;;;;;;7.65;4.13;;;;;;;9.99;100.00;101374.41;2612511;36;20061;-54
2022/10/10 01:14:21;;;;;;;7.50;3.47;;;;;;;9.93;100.00;101374.88;2610582;36;20057;-52
2022/10/10 01:17:03;;;;;;;6.85;3.30;;;;;;;9.95;100.00;101368.41;2611649;36;20050;-54
2022/10/10 01:19:54;;;;;;;10.85;3.58;;;;;;;9.98;100.00;101368.16;2611242;36;20126;-51
2022/10/10 01:22:31;;;;;;;8.98;3.78;;;;;;;9.95;100.00;101375.59;2611566;31;20030;-55
2022/10/10 01:25:12;;;;;;;6.35;3.40;;;;;;;9.91;100.00;101366.06;2611172;36;20034;-50
2022/10/10 01:27:44;;;;;;;5.85;3.38;;;;;;;10.14;100.00;101365.13;2611592;36;20420;-55
2022/10/10 01:30:18;;;;;;;5.20;3.22;;;;;;;10.04;100.00;101366.84;2610890;36;20027;-56
2022/10/10 01:32:54;;;;;;;7.47;3.70;;;;;;;10.02;100.00;101374.16;2611524;31;21116;-49
2022/10/10 01:35:41;;;;;;;6.25;3.45;;;;;;;10.00;100.00;101360.81;2611139;36;20061;-53
2022/10/10 01:38:25;;;;;;;5.20;3.10;;;;;;;10.09;100.00;101364.63;2611493;36;20026;-50
2022/10/10 01:40:57;;;;;;;6.45;3.50;;;;;;;10.05;100.00;101362.31;2611001;36;20035;-54
2022/10/10 01:43:26;;;;;;;6.32;3.40;;;;;;;10.09;100.00;101359.25;2611833;31;20023;-50
2022/10/10 01:45:57;;;;;;;7.82;3.13;;;;;;;9.96;100.00;101356.66;2609210;36;20034;-51
2022/10/10 01:48:30;;;;;;;7.43;3.50;;;;;;;10.01;100.00;101345.53;2609397;36;20606;-55
2022/10/10 01:51:19;;;;;;;5.60;3.15;;;;;;;10.13;100.00;101339.22;2611897;36;20443;-53
2022/10/10 01:54:00;;;;;;;8.68;3.58;;;;;;;10.01;100.00;101345.53;2611199;54;20042;-55
2022/10/10 01:56:37;;;;;;;10.43;3.60;;;;;;;10.14;100.00;101346.31;2610792;31;20069;-52
2022/10/10 01:59:16;;;;;;;6.35;3.78;;;;;;;10.16;100.00;101341.66;2609691;36;20038;-54
2022/10/10 02:01:52;;;;;;;6.90;3.53;;;;;;;10.06;100.00;101334.44;2610512;36;20042;-51
2022/10/10 02:04:31;;;;;;;7.78;3.90;;;;;;;9.99;100.00;101320.59;2610560;36;20133;-57
2022/10/10 02:07:05;;;;;;;6.65;3.30;;;;;;;9.99;100.00;101326.84;2609074;36;20034;-53
2022/10/10 02:09:38;;;;;;;8.20;3.55;;;;;;;10.00;100.00;101322.34;2610896;36;20023;-57
2022/10/10 02:12:08;;;;;;;10.57;4.75;;;;;;;9.98;100.00;101324.25;2610965;36;20117;-52
2022/10/10 02:14:42;;;;;;;9.90;3.80;;;;;;;9.94;100.00;101315.59;2610395;36;20031;-54
2022/10/10 02:17:16;;;;;;;10.43;4.13;;;;;;;10.01;100.00;101313.25;2611871;36;20038;-50
2022/10/10 02:19:51;;;;;;;7.07;3.35;;;;;;;10.02;100.00;101320.38;2611384;31;20061;-53
2022/10/10 02:22:21;;;;;;;6.90;3.38;;;;;;;10.06;100.00;101308.41;2610547;36;20065;-55
2022/10/10 02:24:49;;;;;;;6.15;3.50;;;;;;;10.07;100.00;101307.44;2610470;36;20042;-50
2022/10/10 02:27:23;;;;;;;7.15;3.67;;;;;;;10.07;100.00;101303.84;2610463;36;20042;-55
2022/10/10 02:29:54;;;;;;;6.55;3.53;;;;;;;10.07;100.00;101299.34;2609733;36;20665;-51
2022/10/10 02:32:30;;;;;;;7.13;4.43;;;;;;;10.08;100.00;101298.34;2609737;36;20042;-54
2022/10/10 02:35:05;;;;;;;8.13;3.50;;;;;;;10.03;100.00;101300.56;2610279;31;20038;-54
2022/10/10 02:37:35;;;;;;;6.53;3.55;;;;;;;10.07;100.00;101291.28;2609890;36;20042;-52
2022/10/10 02:40:06;;;;;;;5.45;3.67;;;;;;;10.01;100.00;101291.75;2609854;36;22230;-50
2022/10/10 02:42:36;;;;;;;7.78;4.22;;;;;;;9.96;100.00;101293.97;2611122;36;20428;-53
2022/10/10 02:45:06;;;;;;;7.00;3.70;;;;;;;9.96;100.00;101288.59;2609937;36;20408;-51
2022/10/10 02:47:40;;;;;;;5.00;3.22;;;;;;;9.94;100.00;101285.19;2610058;31;20570;-51
2022/10/10 02:50:09;;;;;;;10.52;4.00;;;;;;;9.98;100.00;101290.19;2609021;36;20042;-56
2022/10/10 02:52:37;;;;;;;;;;;;;;;9.92;100.00;101282.63;2609101;36;20034;-51
2022/10/10 02:55:07;;;;;;;4.28;3.30;;;;;;;9.88;100.00;101281.13;2609085;36;19965;-53
2022/10/10 02:57:35;;;;;;;7.03;4.30;;;;;;;9.81;100.00;101285.28;2610686;36;20031;-51
2022/10/10 03:00:03;;;;;;;8.52;4.07;;;;;;;9.73;100.00;101280.50;2609641;36;20031;-53
2022/10/10 03:02:32;;;;;;;6.63;3.63;;;;;;;9.78;100.00;101275.63;2610783;36;20061;-58
2022/10/10 03:05:03;;;;;;;7.28;4.30;;;;;;;9.75;100.00;101267.78;2611393;36;20752;-57
2022/10/10 03:07:31;;;;;;;7.68;4.35;;;;;;;9.76;100.00;101265.94;2610720;36;20030;-51
2022/10/10 03:09:59;;;;;;;6.68;3.70;;;;;;;9.70;100.00;101266.44;2610770;36;20057;-54
2022/10/10 03:12:27;;;;;;;8.80;3.78;;;;;;;9.68;100.00;101273.78;2610820;36;20415;-54
2022/10/10 03:14:56;;;;;;;9.35;4.60;;;;;;;9.65;100.00;101267.66;2609927;31;20041;-49
2022/10/10 03:17:24;;;;;;;8.57;4.07;;;;;;;9.74;100.00;101263.38;2610798;36;20034;-53
2022/10/10 03:19:52;;;;;;;7.53;4.43;;;;;;;9.67;100.00;101259.47;2610721;36;20590;-53
2022/10/10 03:22:23;;;;;;;10.23;4.32;;;;;;;9.69;100.00;101260.22;2610482;36;20065;-50
2022/10/10 03:24:51;;;;;;;9.10;4.03;;;;;;;9.71;100.00;101266.31;2610943;31;21815;-53
2022/10/10 03:27:20;;;;;;;7.25;4.00;;;;;;;9.64;100.00;101267.78;2610968;36;20039;-52
2022/10/10 03:29:48;;;;;;;6.50;4.43;;;;;;;9.71;100.00;101263.63;2610391;36;20035;-55
2022/10/10 03:32:16;;;;;;;8.23;3.88;;;;;;;9.62;100.00;101261.69;2610335;36;20041;-50
2022/10/10 03:34:45;;;;;;;8.20;4.15;;;;;;;9.61;100.00;101259.94;2610991;36;20061;-52
2022/10/10 03:37:13;;;;;;;6.10;4.10;;;;;;;9.62;100.00;101277.81;2611155;31;20041;-52
2022/10/10 03:39:44;;;;;;;8.02;4.25;;;;;;;9.54;100.00;101270.34;2611058;36;20027;-52
2022/10/10 03:42:12;;;;;;;6.68;3.72;;;;;;;9.57;100.00;101271.91;2611034;36;20613;-53
2022/10/10 03:44:40;;;;;;;5.63;3.88;;;;;;;9.54;100.00;101262.28;2609869;36;20559;-53
2022/10/10 03:47:09;;;;;;;6.65;4.78;;;;;;;9.52;100.00;101274.13;2611393;36;20019;-50
2022/10/10 03:49:37;;;;;;;6.78;4.30;;;;;;;9.47;100.00;101266.41;2611538;36;20298;-55
2022/10/10 03:52:05;;;;;;;7.57;4.25;;;;;;;9.59;100.00;101268.13;2612601;31;20459;-50
2022/10/10 03:54:34;;;;;;;8.80;3.92;;;;;;;9.64;100.00;101267.78;2611980;36;20041;-53
2022/10/10 03:57:04;;;;;;;7.78;4.28;;;;;;;9.60;100.00;101267.16;2611857;31;20443;-54
2022/10/10 03:59:33;;;;;;;5.85;4.40;;;;;;;9.55;100.00;101265.81;2610699;36;20022;-52
2022/10/10 04:02:01;;;;;;;5.80;4.40;;;;;;;9.61;100.00;101262.63;2612091;36;20044;-54
2022/10/10 04:04:29;;;;;;;8.20;5.10;;;;;;;9.54;100.00;101266.78;2611733;31;20042;-53
2022/10/10 04:06:58;;;;;;;7.03;4.18;;;;;;;9.38;100.00;101273.34;2612073;36;20070;-54
2022/10/10 04:09:26;;;;;;;10.95;4.60;;;;;;;9.37;100.00;101274.31;2611396;36;20035;-55
2022/10/10 04:11:55;;;;;;;7.57;5.20;;;;;;;9.41;100.00;101262.38;2611715;31;20077;-55
2022/10/10 04:14:26;;;;;;;7.65;4.53;;;;;;;9.52;100.00;101263.38;2609948;31;20446;-51
2022/10/10 04:16:54;;;;;;;8.90;4.65;;;;;;;9.52;100.00;101264.22;2611332;31;20029;-54
2022/10/10 04:19:22;;;;;;;8.95;4.90;;;;;;;9.49;100.00;101263.59;2611446;31;20046;-54
2022/10/10 04:21:50;;;;;;;8.65;4.28;;;;;;;9.45;100.00;101258.47;2611380;36;20540;-50
2022/10/10 04:24:19;;;;;;;11.93;5.28;;;;;;;9.40;100.00;101259.81;2610784;36;20038;-53
2022/10/10 04:26:47;;;;;;;10.07;4.88;;;;;;;9.30;100.00;101265.03;2610622;31;20061;-49
2022/10/10 04:29:15;;;;;;;9.73;4.88;;;;;;;9.30;100.00;101267.69;2610173;36;20065;-54
2022/10/10 04:31:46;;;;;;;11.77;5.15;;;;;;;9.26;100.00;101263.53;2612103;36;20042;-54
2022/10/10 04:34:15;;;;;;;9.13;5.25;;;;;;;9.33;100.00;101269.31;2611182;36;20035;-49
2022/10/10 04:36:43;;;;;;;8.17;5.00;;;;;;;9.35;100.00;101259.28;2611209;36;20038;-52
2022/10/10 04:39:12;;;;;;;11.53;5.50;;;;;;;9.27;100.00;101263.41;2611656;36;20575;-56
2022/10/10 04:41:40;;;;;;;7.93;4.65;;;;;;;9.23;100.00;101263.78;2612329;36;20303;-50
2022/10/10 04:44:11;;;;;;;7.95;4.80;;;;;;;9.23;100.00;101261.09;2611790;36;20034;-53
2022/10/10 04:46:39;;;;;;;7.03;4.45;;;;;;;9.19;100.00;101260.47;2611634;36;20523;-55
2022/10/10 04:49:10;;;;;;;7.68;5.10;;;;;;;9.09;100.00;101257.63;2611437;36;20035;-55
2022/10/10 04:51:39;;;;;;;7.78;5.10;;;;;;;9.04;100.00;101257.13;2611386;36;20034;-54
2022/10/10 04:54:07;;;;;;;8.27;5.38;;;;;;;9.11;100.00;101260.19;2610021;31;20154;-55
2022/10/10 04:56:35;;;;;;;9.77;5.37;;;;;;;9.07;100.00;101259.59;2605228;31;20558;-50
2022/10/10 04:59:05;;;;;;;10.10;5.55;;;;;;;8.98;100.00;101254.91;2609065;36;20948;-56
2022/10/10 05:01:33;;;;;;;7.85;5.07;;;;;;;9.04;100.00;101262.50;2611895;36;20092;-52
2022/10/10 05:04:02;;;;;;;9.47;5.50;;;;;;;8.94;100.00;101262.34;2612340;36;20057;-55
2022/10/10 05:06:34;;;;;;;10.23;6.05;;;;;;;8.91;100.00;101264.41;2611660;31;20566;-52
2022/10/10 05:09:02;;;;;;;8.52;5.57;;;;;;;9.01;100.00;101260.06;2611644;36;20022;-52
2022/10/10 05:11:31;;;;;;;7.47;5.00;;;;;;;8.90;100.00;101262.69;2611125;36;20041;-50
2022/10/10 05:13:59;;;;;;;10.00;6.25;;;;;;;8.90;100.00;101262.69;2610319;36;20034;-54
2022/10/10 05:16:27;;;;;;;8.40;5.38;;;;;;;8.95;100.00;101263.19;2611884;36;20387;-52
2022/10/10 05:18:56;;;;;;;7.80;4.95;;;;;;;8.90;100.00;101262.69;2611298;36;20045;-52
2022/10/10 05:21:24;;;;;;;10.30;6.28;;;;;;;8.93;100.00;101251.72;2611416;36;20048;-53
2022/10/10 05:23:56;;;;;;;8.02;5.18;;;;;;;8.91;100.00;101253.66;2610711;36;20069;-48
2022/10/10 05:26:24;;;;;;;13.05;6.68;;;;;;;8.91;100.00;101248.31;2611434;36;20427;-50
2022/10/10 05:28:53;;;;;;;11.77;5.72;;;;;;;8.85;100.00;101243.38;2610529;36;20057;-53
2022/10/10 05:31:21;;;;;;;12.23;5.60;;;;;;;8.82;100.00;101238.25;2611972;36;20067;-52
2022/10/10 05:33:50;;;;;;;9.23;5.70;;;;;;;8.88;100.00;101241.31;2610883;36;20038;-50
2022/10/10 05:36:18;;;;;;;10.93;5.78;;;;;;;8.79;100.00;101241.16;2611996;36;20566;-51
2022/10/10 05:38:46;;;;;;;11.43;6.15;;;;;;;8.79;100.00;101243.84;2610502;36;20031;-51
2022/10/10 05:41:17;;;;;;;13.57;5.60;;;;;;;8.75;100.00;101246.75;2612005;36;20110;-52
2022/10/10 05:43:45;;;;;;;12.93;6.85;;;;;;;8.77;100.00;101243.94;2610694;36;20479;-50
2022/10/10 05:46:14;;;;;;;10.55;6.05;;;;;;;8.85;100.00;101254.09;2611422;36;20534;-50
2022/10/10 05:48:42;;;;;;;10.23;6.20;;;;;;;8.91;100.00;101249.16;2611514;36;20035;-49
2022/10/10 05:51:12;;;;;;;8.35;6.30;;;;;;;8.87;100.00;101252.19;2615600;36;20034;-50
2022/10/10 05:53:40;;;;;;;10.60;6.22;;;;;;;8.91;100.00;101248.31;2615559;36;20026;-54
2022/10/10 05:56:08;;;;;;;13.57;6.50;;;;;;;8.92;100.00;101255.38;2614962;36;20034;-54
2022/10/10 05:58:39;;;;;;;10.30;5.97;;;;;;;8.86;100.00;101250.47;2616581;31;20026;-52
2022/10/10 06:01:09;;;;;;;10.80;6.43;;;;;;;8.92;100.00;101252.69;2615953;36;20267;-54
2022/10/10 06:03:38;;;;;;;11.02;6.55;;;;;;;8.97;100.00;101261.25;2615804;36;20029;-49
2022/10/10 06:06:07;;;;;;;10.82;5.85;;;;;;;8.92;100.00;101255.38;2614911;31;20749;-53
2022/10/10 06:08:35;;;;;;;12.02;6.65;;;;;;;8.93;100.00;101251.72;2615696;36;20563;-56
2022/10/10 06:11:06;;;;;;;14.43;6.43;;;;;;;8.94;100.00;101264.19;2616175;36;20471;-50
2022/10/10 06:13:35;;;;;;;10.98;6.38;;;;;;;8.91;100.00;101261.72;2616120;36;20126;-54
2022/10/10 06:16:06;;;;;;;9.82;6.57;;;;;;;8.94;100.00;101258.81;2615276;36;20041;-56
2022/10/10 06:18:35;;;;;;;11.35;6.15;;;;;;;8.90;100.00;101263.53;2616009;36;20030;-56
2022/10/10 06:21:04;;;;;;;9.15;6.00;;;;;;;8.92;100.00;101261.59;2615761;36;20034;-52
2022/10/10 06:23:33;;;;;;;9.25;6.55;;;;;;;8.92;100.00;101260.72;2611831;36;20034;-52
2022/10/10 06:26:03;;;;;;;10.75;6.57;;;;;;;8.92;100.00;101268.78;2614850;31;20034;-54
2022/10/10 06:28:31;;;;;;;11.75;6.65;;;;;;;8.92;100.00;101266.09;2615803;36;20432;-50
2022/10/10 06:31:01;;;;;;;13.55;6.85;;;;;;;8.96;100.00;101262.22;2615900;36;20041;-53
2022/10/10 06:33:32;;;;;;;10.82;6.55;;;;;;;9.00;100.00;101260.19;2615645;36;20041;-50
2022/10/10 06:36:01;;;;;;;10.10;6.35;;;;;;;8.99;100.00;101264.66;2614035;36;20030;-56
2022/10/10 06:38:29;;;;;;;14.70;6.38;;;;;;;9.04;100.00;101264.31;2614431;36;20038;-51
2022/10/10 06:40:57;;;;;;;11.55;6.57;;;;;;;9.15;100.00;101264.38;2589524;36;20037;-58
2022/10/10 06:43:26;;;;;;;14.23;6.57;;;;;;;9.18;100.00;101274.88;2613605;36;20058;-53
2022/10/10 06:45:54;;;;;;;10.73;7.03;;;;;;;9.16;100.00;101273.25;2612961;36;20034;-51
2022/10/10 06:48:22;;;;;;;12.00;6.88;;;;;;;9.26;100.00;101279.66;2613629;31;20023;-52
2022/10/10 06:51:04;;;;;;;11.00;6.22;;;;;;;9.29;100.00;101274.06;2614709;36;20030;-54
2022/10/10 06:53:33;;;;;;;11.40;6.47;;;;;;;9.42;100.00;101279.34;2615416;36;20053;-50
2022/10/10 06:56:02;;;;;;;11.35;6.40;;;;;;;9.43;100.00;101275.69;2613931;36;20026;-55
2022/10/10 06:58:31;;;;;;;13.02;7.00;;;;;;;9.58;100.00;101273.63;2614113;36;20038;-52
2022/10/10 07:01:01;;;;;;;13.45;6.72;;;;;;;9.50;100.00;101273.38;2615996;36;20436;-55
2022/10/10 07:03:30;;;;;;;11.75;6.60;;;;;;;9.53;100.00;101273.16;2615598;36;20030;-53
2022/10/10 07:06:00;;;;;;;;;;;;;;;9.72;100.00;101281.47;2616165;36;20407;-54
2022/10/10 07:08:32;;;;;;;9.90;6.75;;;;;;;9.61;100.00;101287.72;2615526;36;19973;-49
2022/10/10 07:11:00;;;;;;;9.02;6.22;;;;;;;9.78;100.00;101286.38;2610591;36;20093;-49
2022/10/10 07:13:29;;;;;;;9.18;6.43;;;;;;;9.83;100.00;101291.38;2615213;36;20042;-49
2022/10/10 07:15:58;;;;;;;12.13;6.70;;;;;;;9.99;100.00;101291.88;2614996;36;20038;-51
2022/10/10 07:18:26;;;;;;;10.48;6.30;;;;;;;9.95;100.00;101289.56;2615414;31;20027;-56
2022/10/10 07:20:57;;;;;;;12.17;6.80;;;;;;;10.11;100.00;101287.34;2616292;36;20038;-54
2022/10/10 07:23:26;;;;;;;12.13;6.65;;;;;;;10.18;100.00;101293.09;2615902;36;20038;-56
2022/10/10 07:26:01;;;;;;;13.30;7.55;;;;;;;10.46;100.00;101291.75;2616438;36;20041;-52
2022/10/10 07:28:29;;;;;;;12.80;6.95;;;;;;;10.61;100.00;101286.13;2616445;36;20031;-52
2022/10/10 07:31:02;;;;;;;9.63;5.88;;;;;;;10.60;100.00;101287.09;2615209;36;20038;-50
2022/10/10 07:33:33;;;;;;;12.40;6.95;;;;;;;10.66;100.00;101286.59;2616689;31;20076;-54
2022/10/10 07:36:02;;;;;;;8.73;6.13;;;;;;;10.96;100.00;101293.13;2616187;36;20065;-51
2022/10/10 07:38:30;;;;;;;9.88;5.50;;;;;;;10.77;100.00;101289.25;2614845;36;20579;-54
2022/10/10 07:41:01;;;;;;;8.23;5.60;;;;;;;10.74;100.00;101286.81;2608515;36;20023;-51
2022/10/10 07:43:29;;;;;;;9.40;6.45;;;;;;;10.83;100.00;101294.13;2616509;36;20567;-52
2022/10/10 07:45:58;;;;;;;10.82;6.10;;;;;;;10.94;100.00;101289.69;2615673;36;20099;-51
2022/10/10 07:48:26;;;;;;;11.00;5.85;;;;;;;11.06;100.00;101288.66;2609009;31;20042;-54
2022/10/10 07:50:54;;;;;;;10.27;6.45;;;;;;;10.99;100.00;101285.63;2616513;36;20030;-52
2022/10/10 07:53:23;;;;;;;12.77;6.45;;;;;;;10.96;100.00;101299.34;2615908;36;20467;-53
2022/10/10 07:55:51;;;;;;;9.63;5.80;;;;;;;11.13;100.00;101297.94;2615539;36;20030;-54
2022/10/10 07:58:23;;;;;;;8.68;5.95;;;;;;;11.29;100.00;101304.72;2615607;36;20034;-51
2022/10/10 08:00:51;;;;;;;10.70;5.97;;;;;;;11.25;100.00;101304.16;2615502;36;20038;-52
2022/10/10 08:03:20;;;;;;;10.27;6.75;;;;;;;11.29;100.00;101315.50;2616264;36;20073;-53
2022/10/10 08:05:48;;;;;;;9.75;6.78;;;;;;;11.47;100.00;101311.25;2616005;36;20156;-56
2022/10/10 08:08:16;;;;;;;9.32;6.45;;;;;;;11.60;100.00;101307.50;2614531;36;20031;-53
2022/10/10 08:10:45;;;;;;;10.95;5.90;;;;;;;11.81;100.00;101304.81;2616091;36;20041;-53
2022/10/10 08:13:13;;;;;;;10.45;6.32;;;;;;;11.82;100.00;101315.47;2614801;31;20046;-54
2022/10/10 08:15:44;;;;;;;11.40;6.40;;;;;;;11.90;100.00;101304.84;2614505;31;20034;-53
2022/10/10 08:18:12;;;;;;;12.65;6.65;;;;;;;12.20;100.00;101316.66;2615983;36;20042;-54
2022/10/10 08:20:41;;;;;;;15.43;6.65;;;;;;;12.34;100.00;101311.91;2615556;36;20034;-53
2022/10/10 08:23:09;;;;;;;13.52;6.72;;;;;;;12.76;100.00;101317.13;2616410;36;20034;-50
2022/10/10 08:25:37;;;;;;;10.77;5.53;;;;;;;12.80;100.00;101314.00;2616392;36;20039;-57
2022/10/10 08:28:06;;;;;;;7.32;5.90;;;;;;;12.82;100.00;101316.56;2616213;36;20030;-52
2022/10/10 08:30:34;;;;;;;7.65;5.63;;;;;;;12.78;100.00;101315.16;2615154;36;20026;-57
2022/10/10 08:33:05;;;;;;;8.75;5.72;;;;;;;12.92;100.00;101316.59;2616680;36;20030;-56
2022/10/10 08:35:34;;;;;;;10.75;5.35;;;;;;;13.21;100.00;101315.75;2616296;36;20034;-55
2022/10/10 08:38:02;;;;;;;9.77;5.18;;;;;;;13.49;100.00;101311.34;2615983;36;20041;-58
2022/10/10 08:40:30;;;;;;;8.15;5.05;;;;;;;13.72;100.00;101311.91;2615711;36;20031;-56
2022/10/10 08:43:02;;;;;;;7.88;5.25;;;;;;;13.89;100.00;101309.44;2615745;36;20038;-55
2022/10/10 08:45:32;;;;;;;10.70;5.63;;;;;;;13.93;100.00;101310.84;2616048;36;20427;-55
2022/10/10 08:48:03;;;;;;;8.80;5.40;;;;;;;13.97;100.00;101291.47;2615491;36;20031;-53
2022/10/10 08:50:38;;;;;;;9.98;5.38;;;;;;;14.25;100.00;101296.91;2607779;36;20057;-54
2022/10/10 08:53:14;;;;;;;9.95;5.50;;;;;;;14.32;100.00;101292.56;2608407;36;20026;-55
2022/10/10 08:55:45;;;;;;;8.80;5.32;;;;;;;14.42;100.00;101299.81;2616171;36;20022;-52
2022/10/10 08:58:22;;;;;;;10.23;5.50;;;;;;;14.33;100.00;101306.97;2615666;31;20046;-55
2022/10/10 09:00:56;;;;;;;10.02;5.47;;;;;;;14.03;100.00;101314.38;2616256;36;20034;-51
2022/10/10 09:03:32;;;;;;;7.60;4.85;;;;;;;14.11;100.00;101322.59;2616552;36;20023;-53
2022/10/10 09:06:18;;;;;;;8.02;5.10;;;;;;;14.02;100.00;101316.22;2615291;36;20035;-57
2022/10/10 09:08:56;;;;;;;8.48;5.65;;;;;;;14.23;100.00;101325.13;2616548;36;20494;-52
2022/10/10 09:11:40;;;;;;;8.15;5.25;;;;;;;14.11;100.00;101321.75;2615916;36;20430;-56
2022/10/10 09:14:23;;;;;;;12.00;5.45;;;;;;;14.26;100.00;101325.66;2613352;31;20042;-56
2022/10/10 09:16:57;;;;;;;7.28;4.95;;;;;;;14.11;100.00;101329.88;2616298;31;20057;-57
2022/10/10 09:19:40;;;;;;;10.52;5.63;;;;;;;14.22;100.00;101326.97;2615439;36;20052;-56
2022/10/10 09:22:16;;;;;;;11.27;5.80;;;;;;;14.08;100.00;101328.31;2615516;31;20034;-56
2022/10/10 09:24:50;;;;;;;13.65;6.15;;;;;;;14.17;100.00;101329.28;2615502;31;20030;-56
2022/10/10 09:27:23;;;;;;;9.00;5.97;;;;;;;14.24;100.00;101337.66;2616319;36;20430;-60
2022/10/10 09:29:55;;;;;;;12.82;5.20;;;;;;;14.42;100.00;101333.16;2615278;31;20039;-55
2022/10/10 09:32:27;;;;;;;9.90;5.50;;;;;;;14.64;100.00;101331.94;2617076;36;20459;-57
2022/10/10 09:35:00;;;;;;;9.80;5.82;;;;;;;14.57;100.00;101325.38;2615619;36;20057;-56
2022/10/10 09:37:38;;;;;;;9.60;5.80;;;;;;;14.34;100.00;101333.06;2616663;36;20439;-59
2022/10/10 09:40:16;;;;;;;9.38;5.32;;;;;;;14.49;100.00;101322.59;2614710;36;20404;-55
2022/10/10 09:42:46;;;;;;;15.52;7.13;;;;;;;14.22;100.00;101312.59;2615995;36;20018;-57
2022/10/10 09:45:20;;;;;;;10.27;5.35;;;;;;;14.50;100.00;101321.56;2616070;31;20023;-59
2022/10/10 09:47:52;;;;;;;11.80;5.15;;;;;;;14.65;100.00;101319.22;2615709;36;20053;-57
2022/10/10 09:50:21;;;;;;;7.93;5.55;;;;;;;14.66;100.00;101329.06;2615747;31;20023;-56
2022/10/10 09:52:53;;;;;;;11.40;5.82;;;;;;;14.60;100.00;101335.06;2614748;36;20046;-57
2022/10/10 09:55:29;;;;;;;9.32;5.50;;;;;;;14.43;100.00;101334.88;2609421;36;20439;-57
2022/10/10 09:58:05;;;;;;;11.20;5.30;;;;;;;14.35;100.00;101345.59;2615771;36;20046;-55
2022/10/10 10:00:38;;;;;;;10.90;5.82;;;;;;;14.28;100.00;101350.75;2615815;31;20022;-56
2022/10/10 10:03:18;;;;;;;10.45;5.60;;;;;;;14.48;100.00;101345.25;2609164;36;20050;-56
2022/10/10 10:05:54;;;;;;;7.47;5.65;;;;;;;14.54;100.00;101350.91;2615977;36;20038;-58
2022/10/10 10:08:29;;;;;;;12.20;6.18;;;;;;;14.57;100.00;101363.31;2615338;31;20029;-56
2022/10/10 10:11:01;;;;;;;12.40;5.82;;;;;;;14.80;100.00;101357.53;2614342;36;20423;-56
2022/10/10 10:13:32;;;;;;;9.32;5.32;;;;;;;14.84;100.00;101359.78;2614088;36;20463;-62
2022/10/10 10:16:08;;;;;;;8.27;5.25;;;;;;;14.66;100.00;101367.88;2615883;36;20026;-55
2022/10/10 10:18:42;;;;;;;12.98;5.30;;;;;;;14.75;100.00;101373.38;2615188;36;20035;-55
2022/10/10 10:21:22;;;;;;;9.60;5.97;;;;;;;14.85;100.00;101371.47;2615916;36;20038;-55
2022/10/10 10:23:59;;;;;;;7.93;5.38;;;;;;;15.07;100.00;101370.19;2614517;36;20026;-58
2022/10/10 10:26:30;;;;;;;7.65;5.03;;;;;;;15.27;100.00;101372.75;2613766;36;20065;-56
2022/10/10 10:28:59;;;;;;;12.45;5.75;;;;;;;15.29;100.00;101368.88;2614073;36;20547;-58
2022/10/10 10:31:45;;;;;;;6.85;5.15;;;;;;;15.55;100.00;101368.13;2616448;36;20435;-60
2022/10/10 10:34:32;;;;;;;10.00;5.78;;;;;;;15.63;100.00;101368.16;2614478;36;20030;-56
2022/10/10 10:37:09;;;;;;;12.50;5.25;;;;;;;15.53;100.00;101370.09;2616631;36;20435;-57
2022/10/10 10:39:50;;;;;;;8.73;5.55;;;;;;;15.91;100.00;101374.34;2614946;36;20044;-56
2022/10/10 10:42:30;;;;;;;8.32;5.40;;;;;;;16.30;100.00;101378.53;2614937;36;20431;-55
2022/10/10 10:45:07;;;;;;;10.38;5.20;;;;;;;16.14;100.00;101384.69;2613978;36;20485;-60
2022/10/10 10:47:48;;;;;;;9.57;5.18;;;;;;;16.16;100.00;101387.25;2616426;36;20408;-58
2022/10/10 10:50:38;;;;;;;10.90;5.50;;;;;;;15.63;100.00;101381.72;2615534;31;20061;-55
2022/10/10 10:53:18;;;;;;;8.90;5.45;;;;;;;16.02;100.00;101386.81;2615077;36;20990;-58
2022/10/10 10:55:53;;;;;;;9.05;4.90;;;;;;;16.27;100.00;101395.97;2615066;36;20420;-57
2022/10/10 10:58:43;;;;;;;8.65;5.28;;;;;;;16.25;100.00;101398.03;2613535;36;20022;-54
2022/10/10 11:01:17;;;;;;;9.90;5.10;;;;;;;16.30;100.00;101394.81;2606501;36;20065;-56
2022/10/10 11:04:00;;;;;;;9.15;5.72;;;;;;;16.26;100.00;101407.00;2614807;36;20545;-57
2022/10/10 11:06:57;;;;;;;12.73;5.38;;;;;;;16.13;100.00;101403.88;2615809;36;20098;-58
2022/10/10 11:09:32;;;;;;;11.25;5.60;;;;;;;16.41;100.00;101408.09;2607540;36;20572;-56
2022/10/10 11:12:11;;;;;;;9.68;5.13;;;;;;;16.89;100.00;101407.72;2614557;36;20446;-59
2022/10/10 11:14:53;;;;;;;11.13;5.03;;;;;;;16.91;100.00;101403.78;2614425;36;20030;-55
2022/10/10 11:17:26;;;;;;;10.27;5.40;;;;;;;17.04;100.00;101408.75;2616383;36;20397;-56
2022/10/10 11:19:58;;;;;;;9.07;5.25;;;;;;;17.01;100.00;101414.53;2616229;36;20026;-60
2022/10/10 11:22:30;;;;;;;16.73;5.65;;;;;;;17.09;100.00;101417.28;2615646;36;20038;-56
2022/10/10 11:25:04;;;;;;;10.80;5.90;;;;;;;17.25;100.00;101416.47;2615448;36;20564;-54
2022/10/10 11:27:44;;;;;;;14.43;5.85;;;;;;;16.82;100.00;101415.63;2615797;36;20034;-56
2022/10/10 11:30:17;;;;;;;8.23;5.03;;;;;;;16.65;100.00;101420.13;2614363;36;20049;-63
2022/10/10 11:32:51;;;;;;;10.52;5.40;;;;;;;16.29;100.00;101431.13;2614779;36;20049;-56
2022/10/10 11:35:28;;;;;;;8.77;5.00;;;;;;;16.37;100.00;101433.91;2615668;36;20053;-55
2022/10/10 11:38:02;;;;;;;12.80;5.32;;;;;;;16.18;100.00;101431.38;2615730;36;20029;-64
2022/10/10 11:40:49;;;;;;;12.05;5.45;;;;;;;16.00;100.00;101421.41;2615807;31;20420;-55